sensor_id;sensor_type;location;lat;lon;timestamp;P1;durP1;ratioP1;P2;durP2;ratioP2
14611;SDS011;7392;52.078;11.650;2023-08-06T00:00:54;1.90;;;1.80;;
14611;SDS011;7392;52.078;11.650;2023-08-06T00:03:22;5.00;;;2.20;;
14611;SDS011;7392;52.078;11.650;2023-08-06T00:05:51;3.77;;;2.20;;
14611;SDS011;7392;52.078;11.650;2023-08-06T00:08:19;3.47;;;2.17;;
14611;SDS011;7392;52.078;11.650;2023-08-06T00:10:47;2.30;;;2.10;;
14611;SDS011;7392;52.078;11.650;2023-08-06T00:13:15;2.80;;;1.83;;
14611;SDS011;7392;52.078;11.650;2023-08-06T00:15:43;1.87;;;1.70;;
14611;SDS011;7392;52.078;11.650;2023-08-06T00:18:10;1.73;;;1.60;;
14611;SDS011;7392;52.078;11.650;2023-08-06T00:20:39;1.90;;;1.70;;
14611;SDS011;7392;52.078;11.650;2023-08-06T00:23:09;1.57;;;1.47;;
14611;SDS011;7392;52.078;11.650;2023-08-06T00:25:37;1.60;;;1.50;;
14611;SDS011;7392;52.078;11.650;2023-08-06T00:28:04;1.57;;;1.40;;
14611;SDS011;7392;52.078;11.650;2023-08-06T00:30:32;1.57;;;1.47;;
14611;SDS011;7392;52.078;11.650;2023-08-06T00:33:00;1.50;;;1.30;;
14611;SDS011;7392;52.078;11.650;2023-08-06T00:35:28;1.30;;;1.20;;
14611;SDS011;7392;52.078;11.650;2023-08-06T00:37:57;1.00;;;1.00;;
14611;SDS011;7392;52.078;11.650;2023-08-06T00:40:26;1.43;;;1.33;;
14611;SDS011;7392;52.078;11.650;2023-08-06T00:42:55;1.40;;;1.30;;
14611;SDS011;7392;52.078;11.650;2023-08-06T00:45:23;1.33;;;1.23;;
14611;SDS011;7392;52.078;11.650;2023-08-06T00:47:51;1.30;;;1.20;;
14611;SDS011;7392;52.078;11.650;2023-08-06T00:50:19;1.40;;;1.30;;
14611;SDS011;7392;52.078;11.650;2023-08-06T00:52:51;1.10;;;1.00;;
14611;SDS011;7392;52.078;11.650;2023-08-06T00:55:19;1.00;;;0.97;;
14611;SDS011;7392;52.078;11.650;2023-08-06T00:57:48;1.30;;;1.20;;
14611;SDS011;7392;52.078;11.650;2023-08-06T01:00:17;1.23;;;1.13;;
14611;SDS011;7392;52.078;11.650;2023-08-06T01:02:45;1.17;;;1.07;;
14611;SDS011;7392;52.078;11.650;2023-08-06T01:05:13;1.20;;;1.10;;
14611;SDS011;7392;52.078;11.650;2023-08-06T01:07:44;1.27;;;1.00;;
14611;SDS011;7392;52.078;11.650;2023-08-06T01:10:30;1.30;;;1.20;;
14611;SDS011;7392;52.078;11.650;2023-08-06T01:13:16;1.00;;;0.90;;
14611;SDS011;7392;52.078;11.650;2023-08-06T01:15:51;0.90;;;0.90;;
14611;SDS011;7392;52.078;11.650;2023-08-06T01:18:24;1.10;;;0.90;;
14611;SDS011;7392;52.078;11.650;2023-08-06T01:20:53;0.90;;;0.90;;
14611;SDS011;7392;52.078;11.650;2023-08-06T01:23:21;0.80;;;0.80;;
14611;SDS011;7392;52.078;11.650;2023-08-06T01:25:52;1.63;;;1.00;;
14611;SDS011;7392;52.078;11.650;2023-08-06T01:28:30;1.83;;;1.10;;
14611;SDS011;7392;52.078;11.650;2023-08-06T01:31:07;1.77;;;1.50;;
14611;SDS011;7392;52.078;11.650;2023-08-06T01:33:42;1.47;;;1.37;;
14611;SDS011;7392;52.078;11.650;2023-08-06T01:36:15;1.20;;;1.00;;
14611;SDS011;7392;52.078;11.650;2023-08-06T01:38:43;1.40;;;1.30;;
14611;SDS011;7392;52.078;11.650;2023-08-06T01:41:12;1.27;;;1.17;;
14611;SDS011;7392;52.078;11.650;2023-08-06T01:43:39;1.30;;;1.00;;
14611;SDS011;7392;52.078;11.650;2023-08-06T01:46:07;1.73;;;1.30;;
14611;SDS011;7392;52.078;11.650;2023-08-06T01:48:35;1.33;;;1.20;;
14611;SDS011;7392;52.078;11.650;2023-08-06T01:51:03;1.20;;;1.10;;
14611;SDS011;7392;52.078;11.650;2023-08-06T01:53:33;1.17;;;1.07;;
14611;SDS011;7392;52.078;11.650;2023-08-06T01:56:01;1.30;;;1.00;;
14611;SDS011;7392;52.078;11.650;2023-08-06T01:58:29;0.90;;;0.90;;
14611;SDS011;7392;52.078;11.650;2023-08-06T02:00:57;0.90;;;0.90;;
14611;SDS011;7392;52.078;11.650;2023-08-06T02:03:25;0.90;;;0.80;;
14611;SDS011;7392;52.078;11.650;2023-08-06T02:05:52;0.73;;;0.73;;
14611;SDS011;7392;52.078;11.650;2023-08-06T02:08:21;1.23;;;0.83;;
14611;SDS011;7392;52.078;11.650;2023-08-06T02:10:50;1.10;;;0.87;;
14611;SDS011;7392;52.078;11.650;2023-08-06T02:13:18;1.17;;;0.70;;
14611;SDS011;7392;52.078;11.650;2023-08-06T02:15:45;0.80;;;0.80;;
14611;SDS011;7392;52.078;11.650;2023-08-06T02:18:14;1.53;;;1.00;;
14611;SDS011;7392;52.078;11.650;2023-08-06T02:20:42;0.70;;;0.70;;
14611;SDS011;7392;52.078;11.650;2023-08-06T02:23:10;0.87;;;0.87;;
14611;SDS011;7392;52.078;11.650;2023-08-06T02:25:38;1.37;;;1.10;;
14611;SDS011;7392;52.078;11.650;2023-08-06T02:28:07;0.80;;;0.80;;
14611;SDS011;7392;52.078;11.650;2023-08-06T02:30:36;1.03;;;0.90;;
14611;SDS011;7392;52.078;11.650;2023-08-06T02:33:06;0.73;;;0.73;;
14611;SDS011;7392;52.078;11.650;2023-08-06T02:35:33;1.20;;;0.70;;
14611;SDS011;7392;52.078;11.650;2023-08-06T02:38:01;0.70;;;0.70;;
14611;SDS011;7392;52.078;11.650;2023-08-06T02:40:29;1.00;;;0.90;;
14611;SDS011;7392;52.078;11.650;2023-08-06T02:42:56;0.67;;;0.67;;
14611;SDS011;7392;52.078;11.650;2023-08-06T02:45:25;0.80;;;0.80;;
14611;SDS011;7392;52.078;11.650;2023-08-06T02:47:53;0.67;;;0.67;;
14611;SDS011;7392;52.078;11.650;2023-08-06T02:50:21;0.97;;;0.90;;
14611;SDS011;7392;52.078;11.650;2023-08-06T02:52:49;0.70;;;0.70;;
14611;SDS011;7392;52.078;11.650;2023-08-06T02:55:17;0.60;;;0.60;;
14611;SDS011;7392;52.078;11.650;2023-08-06T02:57:46;0.50;;;0.50;;
14611;SDS011;7392;52.078;11.650;2023-08-06T03:00:17;0.50;;;0.50;;
14611;SDS011;7392;52.078;11.650;2023-08-06T03:02:46;0.50;;;0.50;;
14611;SDS011;7392;52.078;11.650;2023-08-06T03:05:23;0.50;;;0.50;;
14611;SDS011;7392;52.078;11.650;2023-08-06T03:07:51;0.50;;;0.50;;
14611;SDS011;7392;52.078;11.650;2023-08-06T03:10:23;0.60;;;0.60;;
14611;SDS011;7392;52.078;11.650;2023-08-06T03:12:53;0.70;;;0.70;;
14611;SDS011;7392;52.078;11.650;2023-08-06T03:15:22;0.60;;;0.60;;
14611;SDS011;7392;52.078;11.650;2023-08-06T03:17:52;0.50;;;0.50;;
14611;SDS011;7392;52.078;11.650;2023-08-06T03:20:24;0.50;;;0.50;;
14611;SDS011;7392;52.078;11.650;2023-08-06T03:22:52;0.70;;;0.70;;
14611;SDS011;7392;52.078;11.650;2023-08-06T03:25:20;0.70;;;0.70;;
14611;SDS011;7392;52.078;11.650;2023-08-06T03:27:49;0.53;;;0.53;;
14611;SDS011;7392;52.078;11.650;2023-08-06T03:30:18;0.70;;;0.70;;
14611;SDS011;7392;52.078;11.650;2023-08-06T03:32:47;0.83;;;0.70;;
14611;SDS011;7392;52.078;11.650;2023-08-06T03:35:20;0.80;;;0.80;;
14611;SDS011;7392;52.078;11.650;2023-08-06T03:37:48;0.80;;;0.67;;
14611;SDS011;7392;52.078;11.650;2023-08-06T03:40:16;0.70;;;0.70;;
14611;SDS011;7392;52.078;11.650;2023-08-06T03:42:44;0.60;;;0.60;;
14611;SDS011;7392;52.078;11.650;2023-08-06T03:45:12;0.70;;;0.70;;
14611;SDS011;7392;52.078;11.650;2023-08-06T03:47:41;0.60;;;0.60;;
14611;SDS011;7392;52.078;11.650;2023-08-06T03:50:09;0.70;;;0.70;;
14611;SDS011;7392;52.078;11.650;2023-08-06T03:52:39;0.63;;;0.63;;
14611;SDS011;7392;52.078;11.650;2023-08-06T03:55:07;0.60;;;0.60;;
14611;SDS011;7392;52.078;11.650;2023-08-06T03:57:36;0.53;;;0.53;;
14611;SDS011;7392;52.078;11.650;2023-08-06T04:00:04;0.50;;;0.50;;
14611;SDS011;7392;52.078;11.650;2023-08-06T04:02:40;0.87;;;0.80;;
14611;SDS011;7392;52.078;11.650;2023-08-06T04:05:10;0.53;;;0.53;;
14611;SDS011;7392;52.078;11.650;2023-08-06T04:07:39;0.70;;;0.70;;
14611;SDS011;7392;52.078;11.650;2023-08-06T04:10:07;0.60;;;0.60;;
14611;SDS011;7392;52.078;11.650;2023-08-06T04:12:35;1.03;;;0.93;;
14611;SDS011;7392;52.078;11.650;2023-08-06T04:15:06;0.60;;;0.60;;
14611;SDS011;7392;52.078;11.650;2023-08-06T04:17:34;0.50;;;0.50;;
14611;SDS011;7392;52.078;11.650;2023-08-06T04:20:02;0.80;;;0.80;;
14611;SDS011;7392;52.078;11.650;2023-08-06T04:22:30;0.60;;;0.60;;
14611;SDS011;7392;52.078;11.650;2023-08-06T04:24:59;0.60;;;0.60;;
14611;SDS011;7392;52.078;11.650;2023-08-06T04:27:27;0.67;;;0.67;;
14611;SDS011;7392;52.078;11.650;2023-08-06T04:29:55;0.40;;;0.40;;
14611;SDS011;7392;52.078;11.650;2023-08-06T04:32:24;0.60;;;0.60;;
14611;SDS011;7392;52.078;11.650;2023-08-06T04:34:55;0.60;;;0.60;;
14611;SDS011;7392;52.078;11.650;2023-08-06T04:37:23;0.57;;;0.57;;
14611;SDS011;7392;52.078;11.650;2023-08-06T04:39:51;0.87;;;0.70;;
14611;SDS011;7392;52.078;11.650;2023-08-06T04:42:20;1.07;;;0.80;;
14611;SDS011;7392;52.078;11.650;2023-08-06T04:44:47;0.70;;;0.70;;
14611;SDS011;7392;52.078;11.650;2023-08-06T04:47:15;0.50;;;0.50;;
14611;SDS011;7392;52.078;11.650;2023-08-06T04:49:44;0.60;;;0.60;;
14611;SDS011;7392;52.078;11.650;2023-08-06T04:52:11;0.90;;;0.70;;
14611;SDS011;7392;52.078;11.650;2023-08-06T04:54:39;0.70;;;0.70;;
14611;SDS011;7392;52.078;11.650;2023-08-06T04:57:07;0.80;;;0.80;;
14611;SDS011;7392;52.078;11.650;2023-08-06T04:59:36;1.70;;;1.23;;
14611;SDS011;7392;52.078;11.650;2023-08-06T05:02:04;1.00;;;0.90;;
14611;SDS011;7392;52.078;11.650;2023-08-06T05:04:32;0.80;;;0.80;;
14611;SDS011;7392;52.078;11.650;2023-08-06T05:07:00;1.10;;;1.00;;
14611;SDS011;7392;52.078;11.650;2023-08-06T05:09:27;1.97;;;1.30;;
14611;SDS011;7392;52.078;11.650;2023-08-06T05:11:55;1.30;;;1.03;;
14611;SDS011;7392;52.078;11.650;2023-08-06T05:14:23;1.00;;;0.90;;
14611;SDS011;7392;52.078;11.650;2023-08-06T05:16:52;1.30;;;1.20;;
14611;SDS011;7392;52.078;11.650;2023-08-06T05:19:20;1.27;;;1.00;;
14611;SDS011;7392;52.078;11.650;2023-08-06T05:21:47;1.67;;;1.23;;
14611;SDS011;7392;52.078;11.650;2023-08-06T05:24:16;1.20;;;1.10;;
14611;SDS011;7392;52.078;11.650;2023-08-06T05:26:47;1.20;;;1.10;;
14611;SDS011;7392;52.078;11.650;2023-08-06T05:29:15;1.70;;;1.40;;
14611;SDS011;7392;52.078;11.650;2023-08-06T05:31:44;1.20;;;1.10;;
14611;SDS011;7392;52.078;11.650;2023-08-06T05:34:13;1.20;;;1.03;;
14611;SDS011;7392;52.078;11.650;2023-08-06T05:36:41;1.20;;;1.10;;
14611;SDS011;7392;52.078;11.650;2023-08-06T05:39:09;1.33;;;1.23;;
14611;SDS011;7392;52.078;11.650;2023-08-06T05:41:37;1.73;;;1.20;;
14611;SDS011;7392;52.078;11.650;2023-08-06T05:44:04;1.20;;;1.10;;
14611;SDS011;7392;52.078;11.650;2023-08-06T05:46:32;1.20;;;1.10;;
14611;SDS011;7392;52.078;11.650;2023-08-06T05:49:00;1.50;;;1.30;;
14611;SDS011;7392;52.078;11.650;2023-08-06T05:51:29;1.30;;;1.20;;
14611;SDS011;7392;52.078;11.650;2023-08-06T05:53:57;1.20;;;1.10;;
14611;SDS011;7392;52.078;11.650;2023-08-06T05:56:24;1.20;;;1.10;;
14611;SDS011;7392;52.078;11.650;2023-08-06T05:58:52;1.00;;;1.00;;
14611;SDS011;7392;52.078;11.650;2023-08-06T06:01:20;1.20;;;1.10;;
14611;SDS011;7392;52.078;11.650;2023-08-06T06:03:48;1.20;;;1.00;;
14611;SDS011;7392;52.078;11.650;2023-08-06T06:06:16;1.20;;;1.10;;
14611;SDS011;7392;52.078;11.650;2023-08-06T06:08:45;1.20;;;1.10;;
14611;SDS011;7392;52.078;11.650;2023-08-06T06:11:13;1.13;;;1.07;;
14611;SDS011;7392;52.078;11.650;2023-08-06T06:13:41;1.30;;;1.20;;
14611;SDS011;7392;52.078;11.650;2023-08-06T06:16:10;1.40;;;1.30;;
14611;SDS011;7392;52.078;11.650;2023-08-06T06:18:37;1.37;;;1.00;;
14611;SDS011;7392;52.078;11.650;2023-08-06T06:21:05;1.40;;;1.30;;
14611;SDS011;7392;52.078;11.650;2023-08-06T06:23:33;1.20;;;1.10;;
14611;SDS011;7392;52.078;11.650;2023-08-06T06:26:02;1.00;;;1.00;;
14611;SDS011;7392;52.078;11.650;2023-08-06T06:28:30;1.20;;;1.10;;
14611;SDS011;7392;52.078;11.650;2023-08-06T06:30:59;1.30;;;1.20;;
14611;SDS011;7392;52.078;11.650;2023-08-06T06:33:27;1.00;;;1.00;;
14611;SDS011;7392;52.078;11.650;2023-08-06T06:35:55;0.90;;;0.90;;
14611;SDS011;7392;52.078;11.650;2023-08-06T06:38:23;1.27;;;0.90;;
14611;SDS011;7392;52.078;11.650;2023-08-06T06:40:54;1.50;;;1.40;;
14611;SDS011;7392;52.078;11.650;2023-08-06T06:43:23;1.87;;;1.50;;
14611;SDS011;7392;52.078;11.650;2023-08-06T06:45:55;1.53;;;1.43;;
14611;SDS011;7392;52.078;11.650;2023-08-06T06:48:25;1.80;;;1.50;;
14611;SDS011;7392;52.078;11.650;2023-08-06T06:50:54;1.70;;;1.60;;
14611;SDS011;7392;52.078;11.650;2023-08-06T06:53:22;1.67;;;1.57;;
14611;SDS011;7392;52.078;11.650;2023-08-06T06:55:54;2.07;;;1.83;;
14611;SDS011;7392;52.078;11.650;2023-08-06T06:58:21;1.70;;;1.60;;
14611;SDS011;7392;52.078;11.650;2023-08-06T07:00:50;1.93;;;1.80;;
14611;SDS011;7392;52.078;11.650;2023-08-06T07:03:19;1.70;;;1.60;;
14611;SDS011;7392;52.078;11.650;2023-08-06T07:05:47;1.67;;;1.50;;
14611;SDS011;7392;52.078;11.650;2023-08-06T07:08:14;1.80;;;1.70;;
14611;SDS011;7392;52.078;11.650;2023-08-06T07:10:42;1.70;;;1.60;;
14611;SDS011;7392;52.078;11.650;2023-08-06T07:13:10;2.00;;;1.80;;
14611;SDS011;7392;52.078;11.650;2023-08-06T07:15:38;1.87;;;1.67;;
14611;SDS011;7392;52.078;11.650;2023-08-06T07:18:07;1.67;;;1.57;;
14611;SDS011;7392;52.078;11.650;2023-08-06T07:20:35;1.80;;;1.70;;
14611;SDS011;7392;52.078;11.650;2023-08-06T07:23:03;2.20;;;1.70;;
14611;SDS011;7392;52.078;11.650;2023-08-06T07:25:34;2.37;;;1.90;;
14611;SDS011;7392;52.078;11.650;2023-08-06T07:28:01;3.37;;;2.90;;
14611;SDS011;7392;52.078;11.650;2023-08-06T07:30:29;3.33;;;2.53;;
14611;SDS011;7392;52.078;11.650;2023-08-06T07:32:57;2.27;;;2.03;;
14611;SDS011;7392;52.078;11.650;2023-08-06T07:35:28;2.40;;;2.20;;
14611;SDS011;7392;52.078;11.650;2023-08-06T07:37:56;1.97;;;1.73;;
14611;SDS011;7392;52.078;11.650;2023-08-06T07:40:23;2.00;;;1.80;;
14611;SDS011;7392;52.078;11.650;2023-08-06T07:42:51;2.57;;;2.23;;
14611;SDS011;7392;52.078;11.650;2023-08-06T07:45:19;1.83;;;1.63;;
14611;SDS011;7392;52.078;11.650;2023-08-06T07:47:47;1.80;;;1.70;;
14611;SDS011;7392;52.078;11.650;2023-08-06T07:50:15;1.60;;;1.50;;
14611;SDS011;7392;52.078;11.650;2023-08-06T07:52:44;1.70;;;1.60;;
14611;SDS011;7392;52.078;11.650;2023-08-06T07:55:12;1.53;;;1.43;;
14611;SDS011;7392;52.078;11.650;2023-08-06T07:57:40;1.70;;;1.50;;
14611;SDS011;7392;52.078;11.650;2023-08-06T08:00:08;1.33;;;1.13;;
14611;SDS011;7392;52.078;11.650;2023-08-06T08:02:39;1.40;;;1.30;;
14611;SDS011;7392;52.078;11.650;2023-08-06T08:05:07;1.20;;;1.10;;
14611;SDS011;7392;52.078;11.650;2023-08-06T08:07:35;0.97;;;0.97;;
14611;SDS011;7392;52.078;11.650;2023-08-06T08:10:05;1.37;;;1.07;;
14611;SDS011;7392;52.078;11.650;2023-08-06T08:12:34;1.87;;;1.60;;
14611;SDS011;7392;52.078;11.650;2023-08-06T08:15:02;1.70;;;1.60;;
14611;SDS011;7392;52.078;11.650;2023-08-06T08:17:30;1.50;;;1.40;;
14611;SDS011;7392;52.078;11.650;2023-08-06T08:19:58;1.50;;;1.40;;
14611;SDS011;7392;52.078;11.650;2023-08-06T08:22:26;1.37;;;1.27;;
14611;SDS011;7392;52.078;11.650;2023-08-06T08:24:53;1.83;;;1.50;;
14611;SDS011;7392;52.078;11.650;2023-08-06T08:27:22;1.60;;;1.50;;
14611;SDS011;7392;52.078;11.650;2023-08-06T08:29:50;1.60;;;1.50;;
14611;SDS011;7392;52.078;11.650;2023-08-06T08:32:18;1.23;;;1.13;;
14611;SDS011;7392;52.078;11.650;2023-08-06T08:34:46;1.40;;;1.30;;
14611;SDS011;7392;52.078;11.650;2023-08-06T08:37:14;1.40;;;1.30;;
14611;SDS011;7392;52.078;11.650;2023-08-06T08:39:42;2.10;;;1.50;;
14611;SDS011;7392;52.078;11.650;2023-08-06T08:42:10;1.30;;;1.20;;
14611;SDS011;7392;52.078;11.650;2023-08-06T08:44:39;1.40;;;1.30;;
14611;SDS011;7392;52.078;11.650;2023-08-06T08:47:09;1.33;;;1.23;;
14611;SDS011;7392;52.078;11.650;2023-08-06T08:49:38;1.50;;;1.40;;
14611;SDS011;7392;52.078;11.650;2023-08-06T08:52:06;1.20;;;1.10;;
14611;SDS011;7392;52.078;11.650;2023-08-06T08:54:37;1.00;;;0.90;;
14611;SDS011;7392;52.078;11.650;2023-08-06T08:57:05;1.20;;;1.10;;
14611;SDS011;7392;52.078;11.650;2023-08-06T08:59:33;0.90;;;0.90;;
14611;SDS011;7392;52.078;11.650;2023-08-06T09:02:03;0.90;;;0.90;;
14611;SDS011;7392;52.078;11.650;2023-08-06T09:04:31;1.07;;;1.07;;
14611;SDS011;7392;52.078;11.650;2023-08-06T09:07:01;0.80;;;0.80;;
14611;SDS011;7392;52.078;11.650;2023-08-06T09:09:30;1.00;;;0.90;;
14611;SDS011;7392;52.078;11.650;2023-08-06T09:12:01;1.90;;;1.33;;
14611;SDS011;7392;52.078;11.650;2023-08-06T09:14:33;1.20;;;1.10;;
14611;SDS011;7392;52.078;11.650;2023-08-06T09:17:00;0.90;;;0.90;;
14611;SDS011;7392;52.078;11.650;2023-08-06T09:19:31;0.80;;;0.80;;
14611;SDS011;7392;52.078;11.650;2023-08-06T09:21:59;1.20;;;1.10;;
14611;SDS011;7392;52.078;11.650;2023-08-06T09:24:27;0.90;;;0.90;;
14611;SDS011;7392;52.078;11.650;2023-08-06T09:26:55;1.23;;;1.13;;
14611;SDS011;7392;52.078;11.650;2023-08-06T09:29:24;1.00;;;1.00;;
14611;SDS011;7392;52.078;11.650;2023-08-06T09:31:52;1.30;;;1.20;;
14611;SDS011;7392;52.078;11.650;2023-08-06T09:34:23;1.20;;;1.10;;
14611;SDS011;7392;52.078;11.650;2023-08-06T09:36:51;1.20;;;1.10;;
14611;SDS011;7392;52.078;11.650;2023-08-06T09:39:20;1.33;;;1.23;;
14611;SDS011;7392;52.078;11.650;2023-08-06T09:41:48;3.30;;;1.33;;
14611;SDS011;7392;52.078;11.650;2023-08-06T09:44:24;1.47;;;1.37;;
14611;SDS011;7392;52.078;11.650;2023-08-06T09:46:54;1.33;;;1.23;;
14611;SDS011;7392;52.078;11.650;2023-08-06T09:49:26;1.30;;;1.10;;
14611;SDS011;7392;52.078;11.650;2023-08-06T09:51:55;1.40;;;1.13;;
14611;SDS011;7392;52.078;11.650;2023-08-06T09:54:26;1.30;;;1.10;;
14611;SDS011;7392;52.078;11.650;2023-08-06T09:56:56;1.37;;;1.27;;
14611;SDS011;7392;52.078;11.650;2023-08-06T09:59:24;1.40;;;1.30;;
14611;SDS011;7392;52.078;11.650;2023-08-06T10:01:53;1.60;;;1.43;;
14611;SDS011;7392;52.078;11.650;2023-08-06T10:04:22;1.43;;;1.23;;
14611;SDS011;7392;52.078;11.650;2023-08-06T10:06:59;1.43;;;1.30;;
14611;SDS011;7392;52.078;11.650;2023-08-06T10:09:28;1.40;;;1.30;;
14611;SDS011;7392;52.078;11.650;2023-08-06T10:11:56;1.37;;;1.27;;
14611;SDS011;7392;52.078;11.650;2023-08-06T10:14:25;1.40;;;1.30;;
14611;SDS011;7392;52.078;11.650;2023-08-06T10:16:58;1.30;;;1.20;;
14611;SDS011;7392;52.078;11.650;2023-08-06T10:19:27;1.50;;;1.40;;
14611;SDS011;7392;52.078;11.650;2023-08-06T10:22:10;1.33;;;1.23;;
14611;SDS011;7392;52.078;11.650;2023-08-06T10:24:47;1.30;;;1.20;;
14611;SDS011;7392;52.078;11.650;2023-08-06T10:27:28;2.13;;;1.30;;
14611;SDS011;7392;52.078;11.650;2023-08-06T10:32:49;1.20;;;1.10;;
14611;SDS011;7392;52.078;11.650;2023-08-06T10:35:28;1.40;;;1.30;;
14611;SDS011;7392;52.078;11.650;2023-08-06T10:38:07;1.50;;;1.40;;
14611;SDS011;7392;52.078;11.650;2023-08-06T10:40:36;2.90;;;1.40;;
14611;SDS011;7392;52.078;11.650;2023-08-06T10:43:05;1.47;;;1.37;;
14611;SDS011;7392;52.078;11.650;2023-08-06T10:45:35;1.40;;;1.30;;
14611;SDS011;7392;52.078;11.650;2023-08-06T10:48:04;1.80;;;1.70;;
14611;SDS011;7392;52.078;11.650;2023-08-06T10:50:32;1.73;;;1.63;;
14611;SDS011;7392;52.078;11.650;2023-08-06T10:53:03;1.30;;;1.20;;
14611;SDS011;7392;52.078;11.650;2023-08-06T10:55:34;1.60;;;1.50;;
14611;SDS011;7392;52.078;11.650;2023-08-06T10:58:03;1.80;;;1.70;;
14611;SDS011;7392;52.078;11.650;2023-08-06T11:00:31;1.70;;;1.60;;
14611;SDS011;7392;52.078;11.650;2023-08-06T11:02:59;1.70;;;1.60;;
14611;SDS011;7392;52.078;11.650;2023-08-06T11:05:27;1.60;;;1.50;;
14611;SDS011;7392;52.078;11.650;2023-08-06T11:07:54;1.43;;;1.33;;
14611;SDS011;7392;52.078;11.650;2023-08-06T11:10:22;1.50;;;1.40;;
14611;SDS011;7392;52.078;11.650;2023-08-06T11:12:51;1.57;;;1.47;;
14611;SDS011;7392;52.078;11.650;2023-08-06T11:15:19;1.45;;;1.35;;
14611;SDS011;7392;52.078;11.650;2023-08-06T11:17:48;1.52;;;1.42;;
14611;SDS011;7392;52.078;11.650;2023-08-06T11:20:16;1.58;;;1.38;;
14611;SDS011;7392;52.078;11.650;2023-08-06T11:22:44;1.63;;;1.52;;
14611;SDS011;7392;52.078;11.650;2023-08-06T11:25:11;1.63;;;1.30;;
14611;SDS011;7392;52.078;11.650;2023-08-06T11:27:39;1.40;;;1.30;;
14611;SDS011;7392;52.078;11.650;2023-08-06T11:30:09;1.33;;;1.23;;
14611;SDS011;7392;52.078;11.650;2023-08-06T11:32:44;1.95;;;1.52;;
14611;SDS011;7392;52.078;11.650;2023-08-06T11:35:13;1.88;;;1.30;;
14611;SDS011;7392;52.078;11.650;2023-08-06T11:37:43;1.50;;;1.40;;
14611;SDS011;7392;52.078;11.650;2023-08-06T11:40:11;1.48;;;1.38;;
14611;SDS011;7392;52.078;11.650;2023-08-06T11:42:42;1.38;;;1.27;;
14611;SDS011;7392;52.078;11.650;2023-08-06T11:45:11;1.60;;;1.50;;
14611;SDS011;7392;52.078;11.650;2023-08-06T11:47:39;1.50;;;1.40;;
14611;SDS011;7392;52.078;11.650;2023-08-06T11:50:07;1.50;;;1.40;;
14611;SDS011;7392;52.078;11.650;2023-08-06T11:52:38;1.30;;;1.20;;
14611;SDS011;7392;52.078;11.650;2023-08-06T11:55:08;1.30;;;1.20;;
14611;SDS011;7392;52.078;11.650;2023-08-06T11:57:37;1.40;;;1.30;;
14611;SDS011;7392;52.078;11.650;2023-08-06T12:00:06;1.33;;;1.23;;
14611;SDS011;7392;52.078;11.650;2023-08-06T12:02:43;2.42;;;1.33;;
14611;SDS011;7392;52.078;11.650;2023-08-06T12:05:12;1.30;;;1.20;;
14611;SDS011;7392;52.078;11.650;2023-08-06T12:07:42;1.30;;;1.20;;
14611;SDS011;7392;52.078;11.650;2023-08-06T12:10:11;1.10;;;1.00;;
14611;SDS011;7392;52.078;11.650;2023-08-06T12:12:40;1.23;;;1.13;;
14611;SDS011;7392;52.078;11.650;2023-08-06T12:15:08;1.30;;;1.20;;
14611;SDS011;7392;52.078;11.650;2023-08-06T12:17:37;1.60;;;1.48;;
14611;SDS011;7392;52.078;11.650;2023-08-06T12:20:07;1.23;;;1.13;;
14611;SDS011;7392;52.078;11.650;2023-08-06T12:22:36;1.52;;;1.42;;
14611;SDS011;7392;52.078;11.650;2023-08-06T12:25:07;1.88;;;1.60;;
14611;SDS011;7392;52.078;11.650;2023-08-06T12:27:38;1.58;;;1.48;;
14611;SDS011;7392;52.078;11.650;2023-08-06T12:30:07;1.45;;;1.35;;
14611;SDS011;7392;52.078;11.650;2023-08-06T12:32:35;1.50;;;1.40;;
14611;SDS011;7392;52.078;11.650;2023-08-06T12:35:03;1.30;;;1.20;;
14611;SDS011;7392;52.078;11.650;2023-08-06T12:37:35;1.50;;;1.40;;
14611;SDS011;7392;52.078;11.650;2023-08-06T12:40:05;1.42;;;1.33;;
14611;SDS011;7392;52.078;11.650;2023-08-06T12:42:54;1.00;;;1.00;;
14611;SDS011;7392;52.078;11.650;2023-08-06T12:45:21;1.30;;;1.20;;
14611;SDS011;7392;52.078;11.650;2023-08-06T12:47:49;1.40;;;1.30;;
14611;SDS011;7392;52.078;11.650;2023-08-06T12:50:17;1.23;;;1.13;;
14611;SDS011;7392;52.078;11.650;2023-08-06T12:52:46;1.15;;;1.05;;
14611;SDS011;7392;52.078;11.650;2023-08-06T12:55:14;1.20;;;1.10;;
14611;SDS011;7392;52.078;11.650;2023-08-06T12:57:42;1.20;;;1.10;;
14611;SDS011;7392;52.078;11.650;2023-08-06T13:00:24;1.45;;;1.35;;
14611;SDS011;7392;52.078;11.650;2023-08-06T13:02:52;1.10;;;1.00;;
14611;SDS011;7392;52.078;11.650;2023-08-06T13:05:20;1.52;;;1.17;;
14611;SDS011;7392;52.078;11.650;2023-08-06T13:07:49;1.67;;;1.00;;
14611;SDS011;7392;52.078;11.650;2023-08-06T13:10:17;1.52;;;1.30;;
14611;SDS011;7392;52.078;11.650;2023-08-06T13:12:46;1.25;;;1.15;;
14611;SDS011;7392;52.078;11.650;2023-08-06T13:15:14;1.27;;;1.17;;
14611;SDS011;7392;52.078;11.650;2023-08-06T13:17:43;1.10;;;1.00;;
14611;SDS011;7392;52.078;11.650;2023-08-06T13:20:11;0.90;;;0.90;;
14611;SDS011;7392;52.078;11.650;2023-08-06T13:22:38;1.10;;;1.00;;
14611;SDS011;7392;52.078;11.650;2023-08-06T13:25:07;1.02;;;0.93;;
14611;SDS011;7392;52.078;11.650;2023-08-06T13:27:35;0.70;;;0.70;;
14611;SDS011;7392;52.078;11.650;2023-08-06T13:30:03;1.10;;;1.00;;
14611;SDS011;7392;52.078;11.650;2023-08-06T13:32:32;1.10;;;1.00;;
14611;SDS011;7392;52.078;11.650;2023-08-06T13:35:03;1.10;;;1.00;;
14611;SDS011;7392;52.078;11.650;2023-08-06T13:37:31;2.50;;;0.90;;
14611;SDS011;7392;52.078;11.650;2023-08-06T13:39:58;0.90;;;0.90;;
14611;SDS011;7392;52.078;11.650;2023-08-06T13:42:27;1.20;;;1.10;;
14611;SDS011;7392;52.078;11.650;2023-08-06T13:44:56;1.00;;;0.90;;
14611;SDS011;7392;52.078;11.650;2023-08-06T13:47:29;0.98;;;0.90;;
14611;SDS011;7392;52.078;11.650;2023-08-06T13:49:56;0.90;;;0.90;;
14611;SDS011;7392;52.078;11.650;2023-08-06T13:52:25;1.10;;;1.00;;
14611;SDS011;7392;52.078;11.650;2023-08-06T13:54:53;1.00;;;1.00;;
14611;SDS011;7392;52.078;11.650;2023-08-06T13:57:21;0.95;;;0.90;;
14611;SDS011;7392;52.078;11.650;2023-08-06T13:59:50;0.85;;;0.85;;
14611;SDS011;7392;52.078;11.650;2023-08-06T14:02:17;0.88;;;0.88;;
14611;SDS011;7392;52.078;11.650;2023-08-06T14:04:45;0.75;;;0.75;;
14611;SDS011;7392;52.078;11.650;2023-08-06T14:07:13;1.00;;;0.98;;
14611;SDS011;7392;52.078;11.650;2023-08-06T14:09:41;1.13;;;1.02;;
14611;SDS011;7392;52.078;11.650;2023-08-06T14:12:10;1.02;;;0.98;;
14611;SDS011;7392;52.078;11.650;2023-08-06T14:14:38;0.90;;;0.90;;
14611;SDS011;7392;52.078;11.650;2023-08-06T14:17:07;1.10;;;1.00;;
14611;SDS011;7392;52.078;11.650;2023-08-06T14:19:34;1.08;;;0.98;;
14611;SDS011;7392;52.078;11.650;2023-08-06T14:22:02;1.02;;;1.00;;
14611;SDS011;7392;52.078;11.650;2023-08-06T14:24:30;1.20;;;1.10;;
14611;SDS011;7392;52.078;11.650;2023-08-06T14:26:58;1.10;;;1.00;;
14611;SDS011;7392;52.078;11.650;2023-08-06T14:29:25;1.20;;;1.02;;
14611;SDS011;7392;52.078;11.650;2023-08-06T14:31:53;1.08;;;0.95;;
14611;SDS011;7392;52.078;11.650;2023-08-06T14:34:22;0.90;;;0.90;;
14611;SDS011;7392;52.078;11.650;2023-08-06T14:36:50;1.17;;;1.08;;
14611;SDS011;7392;52.078;11.650;2023-08-06T14:39:18;1.20;;;1.10;;
14611;SDS011;7392;52.078;11.650;2023-08-06T14:41:46;1.00;;;1.00;;
14611;SDS011;7392;52.078;11.650;2023-08-06T14:44:14;1.10;;;1.00;;
14611;SDS011;7392;52.078;11.650;2023-08-06T14:46:42;1.08;;;1.00;;
14611;SDS011;7392;52.078;11.650;2023-08-06T14:49:09;1.10;;;1.00;;
14611;SDS011;7392;52.078;11.650;2023-08-06T14:51:38;1.00;;;0.90;;
14611;SDS011;7392;52.078;11.650;2023-08-06T14:54:06;0.90;;;0.90;;
14611;SDS011;7392;52.078;11.650;2023-08-06T14:56:34;0.88;;;0.85;;
14611;SDS011;7392;52.078;11.650;2023-08-06T14:59:02;1.10;;;1.00;;
14611;SDS011;7392;52.078;11.650;2023-08-06T15:01:29;0.80;;;0.80;;